createdAt,value
2023-05-24T00:00:01.902Z,73117.38
2023-05-24T00:00:37.394Z,73113.38
2023-05-24T00:01:12.356Z,73115.38
2023-05-24T00:01:44.766Z,73115.38
2023-05-24T00:02:17.120Z,73113.38
2023-05-24T00:02:49.830Z,73111.38
2023-05-24T00:03:25.112Z,73113.38
2023-05-24T00:03:59.422Z,73105.38
2023-05-24T00:04:34.630Z,73109.38
2023-05-24T00:05:11.409Z,73109.38
2023-05-24T00:05:43.790Z,73107.38
2023-05-24T00:06:17.358Z,73109.38
2023-05-24T00:06:55.190Z,73113.38
2023-05-24T00:07:27.585Z,73109.38
2023-05-24T00:08:00.361Z,73109.38
2023-05-24T00:08:35.310Z,73111.38
2023-05-24T00:09:07.701Z,73109.38
2023-05-24T00:09:40.060Z,73109.38
2023-05-24T00:10:15.814Z,73105.38
2023-05-24T00:10:48.743Z,73113.38
2023-05-24T00:11:22.406Z,73105.38
2023-05-24T00:11:57.349Z,73107.38
2023-05-24T00:12:29.695Z,73107.38
2023-05-24T00:13:02.132Z,73107.38
2023-05-24T00:13:37.148Z,73105.38
2023-05-24T00:14:09.522Z,73105.38
2023-05-24T00:14:41.910Z,73109.38
2023-05-24T00:15:16.856Z,73107.38
2023-05-24T00:15:49.330Z,73105.38
2023-05-24T00:16:21.700Z,73107.38
2023-05-24T00:16:56.740Z,73109.38
2023-05-24T00:17:30.486Z,73105.38
2023-05-24T00:18:02.991Z,73109.38
2023-05-24T00:18:35.440Z,73109.38
2023-05-24T00:19:11.533Z,73105.38
2023-05-24T00:19:46.600Z,73103.38
2023-05-24T00:20:21.244Z,73107.38
2023-05-24T00:20:57.455Z,73111.38
2023-05-24T00:21:29.961Z,73105.38
2023-05-24T00:22:02.322Z,73113.38
2023-05-24T00:22:34.726Z,73113.38
2023-05-24T00:23:09.765Z,73113.38
2023-05-24T00:23:42.406Z,73113.38
2023-05-24T00:24:14.857Z,73119.34
2023-05-24T00:24:49.949Z,73117.38
2023-05-24T00:25:22.303Z,73117.38
2023-05-24T00:25:54.741Z,73117.38
2023-05-24T00:26:27.213Z,73119.34
2023-05-24T00:27:04.187Z,73117.38
2023-05-24T00:27:37.574Z,73115.38
2023-05-24T00:28:10.056Z,73121.34
2023-05-24T00:28:45.020Z,73117.38
2023-05-24T00:29:17.409Z,73117.38
2023-05-24T00:29:49.824Z,73121.34
2023-05-24T00:30:24.784Z,73115.38
2023-05-24T00:30:57.213Z,73119.34
2023-05-24T00:31:29.673Z,73121.34
2023-05-24T00:32:04.730Z,73119.34
2023-05-24T00:32:37.148Z,73117.38
2023-05-24T00:33:09.612Z,73115.38
2023-05-24T00:33:44.578Z,73121.34
2023-05-24T00:34:17.240Z,73125.34
2023-05-24T00:34:53.360Z,73117.38
2023-05-24T00:35:28.309Z,73123.34
2023-05-24T00:36:00.698Z,73117.38
2023-05-24T00:36:33.387Z,73119.34
2023-05-24T00:37:08.584Z,73121.34
2023-05-24T00:37:45.335Z,73125.34
2023-05-24T00:38:17.884Z,73119.34
2023-05-24T00:38:53.047Z,73121.34
2023-05-24T00:39:25.478Z,73121.34
2023-05-24T00:39:58.080Z,73125.34
2023-05-24T00:40:33.072Z,73123.34
2023-05-24T00:41:05.994Z,73121.34
2023-05-24T00:41:38.354Z,73119.34
2023-05-24T00:42:13.317Z,73123.34
2023-05-24T00:42:45.683Z,73117.38
2023-05-24T00:43:18.289Z,73121.34
2023-05-24T00:43:53.297Z,73121.34
2023-05-24T00:44:25.659Z,73121.34
2023-05-24T00:44:58.039Z,73119.34
2023-05-24T00:45:33.868Z,73125.34
2023-05-24T00:46:15.964Z,73125.34
2023-05-24T00:46:48.392Z,73125.34
2023-05-24T00:47:23.988Z,73123.34
2023-05-24T00:47:56.800Z,73125.34
2023-05-24T00:48:29.228Z,73123.34
2023-05-24T00:49:04.825Z,73125.34
2023-05-24T00:49:37.419Z,73129.34
2023-05-24T00:50:14.689Z,73127.34
2023-05-24T00:50:49.666Z,73125.34
2023-05-24T00:51:22.158Z,73125.34
2023-05-24T00:51:55.194Z,73125.34
2023-05-24T00:52:30.249Z,73121.34
2023-05-24T00:53:03.826Z,73117.38
2023-05-24T00:53:37.594Z,73125.34
2023-05-24T00:54:14.104Z,73123.34
2023-05-24T00:54:46.571Z,73125.34
2023-05-24T00:55:19.022Z,73123.34
2023-05-24T00:55:51.533Z,73117.38
2023-05-24T00:56:26.938Z,73117.38
2023-05-24T00:56:59.461Z,73123.34
2023-05-24T00:57:32.352Z,73121.34
2023-05-24T00:58:07.329Z,73117.38
2023-05-24T00:58:40.409Z,73121.34
2023-05-24T00:59:12.899Z,73121.34
2023-05-24T00:59:48.115Z,73121.34
2023-05-24T01:00:20.858Z,73125.34
2023-05-24T01:00:58.030Z,73121.34
2023-05-24T01:01:33.696Z,73119.34
2023-05-24T01:02:06.691Z,73121.34
2023-05-24T01:02:39.250Z,73121.34
2023-05-24T01:03:14.811Z,73125.34
2023-05-24T01:03:49.449Z,73127.34
2023-05-24T01:04:24.545Z,73125.34
2023-05-24T01:04:58.207Z,73125.34
2023-05-24T01:05:33.467Z,73121.34
2023-05-24T01:06:10.012Z,73129.34
2023-05-24T01:06:50.062Z,73125.34
2023-05-24T01:07:27.180Z,73123.34
2023-05-24T01:08:10.341Z,73125.34
2023-05-24T01:08:48.773Z,73125.34
2023-05-24T01:09:29.732Z,73125.34
2023-05-24T01:10:10.052Z,73125.34
2023-05-24T01:10:51.801Z,73125.34
2023-05-24T01:11:31.298Z,73129.34
2023-05-24T01:12:14.765Z,73125.34
2023-05-24T01:12:56.882Z,73125.34
2023-05-24T01:13:36.922Z,73125.34
2023-05-24T01:14:18.747Z,73123.34
2023-05-24T01:15:01.879Z,73127.34
2023-05-24T01:15:45.080Z,73125.34
2023-05-24T01:16:24.163Z,73125.34
2023-05-24T01:17:03.958Z,73127.34
2023-05-24T01:17:49.522Z,73131.34
2023-05-24T01:18:26.601Z,73133.34
2023-05-24T01:19:05.203Z,73129.34
2023-05-24T01:19:55.343Z,73133.34
2023-05-24T01:20:30.745Z,73129.34
2023-05-24T01:21:29.914Z,73131.34
2023-05-24T01:22:14.458Z,73129.34
2023-05-24T01:23:18.581Z,73129.34
2023-05-24T01:24:01.977Z,73125.34
2023-05-24T01:24:42.670Z,73125.34
2023-05-24T01:25:22.803Z,73131.34
2023-05-24T01:26:06.754Z,73129.34
2023-05-24T01:26:46.207Z,73125.34
2023-05-24T01:27:24.409Z,73127.34
2023-05-24T01:27:56.840Z,73125.34
2023-05-24T01:28:30.394Z,73127.34
2023-05-24T01:29:06.015Z,73127.34
2023-05-24T01:29:39.050Z,73133.34
2023-05-24T01:30:12.313Z,73129.34
2023-05-24T01:30:48.061Z,73129.34
2023-05-24T01:31:22.353Z,73129.34
2023-05-24T01:31:55.329Z,73133.34
2023-05-24T01:32:30.567Z,73131.34
2023-05-24T01:33:03.284Z,73133.34
2023-05-24T01:33:35.690Z,73129.34
2023-05-24T01:34:10.746Z,73133.34
2023-05-24T01:34:44.117Z,73131.34
2023-05-24T01:35:16.457Z,73137.31
2023-05-24T01:35:50.273Z,73135.31
2023-05-24T01:36:25.313Z,73137.31
2023-05-24T01:36:57.662Z,73133.34
2023-05-24T01:37:30.027Z,73135.31
2023-05-24T01:38:05.121Z,73135.31
2023-05-24T01:38:37.524Z,73135.31
2023-05-24T01:39:10.149Z,73133.34
2023-05-24T01:39:45.284Z,73141.31
2023-05-24T01:40:17.892Z,73133.34
2023-05-24T01:40:54.197Z,73135.31
2023-05-24T01:41:37.977Z,73137.31
2023-05-24T01:42:16.059Z,73137.31
2023-05-24T01:43:05.715Z,73141.31
2023-05-24T01:43:43.365Z,73141.31
2023-05-24T01:44:20.437Z,73135.31
2023-05-24T01:45:03.442Z,73141.31
2023-05-24T01:45:42.838Z,73143.31
2023-05-24T01:46:19.937Z,73143.31
2023-05-24T01:47:01.159Z,73143.31
2023-05-24T01:47:45.808Z,73145.31
2023-05-24T01:48:22.615Z,73145.31
2023-05-24T01:49:01.082Z,73143.31
2023-05-24T01:49:41.474Z,73141.31
2023-05-24T01:50:18.839Z,73139.31
2023-05-24T01:50:54.965Z,73139.31
2023-05-24T01:51:33.633Z,73141.31
2023-05-24T01:52:11.761Z,73151.28
2023-05-24T01:52:45.875Z,73141.31
2023-05-24T01:53:22.873Z,73141.31
2023-05-24T01:53:56.619Z,73141.31
2023-05-24T01:54:32.733Z,73145.31
2023-05-24T01:55:08.850Z,73141.31
2023-05-24T01:55:41.511Z,73149.31
2023-05-24T01:56:15.168Z,73145.31
2023-05-24T01:56:51.573Z,73151.28
2023-05-24T01:57:24.310Z,73155.28
2023-05-24T01:58:02.485Z,73153.28
2023-05-24T01:58:38.738Z,73155.28
2023-05-24T01:59:12.355Z,73155.28
2023-05-24T01:59:45.156Z,73153.28
2023-05-24T02:00:22.725Z,73149.31
2023-05-24T02:00:58.224Z,73151.28
2023-05-24T02:01:32.152Z,73153.28
2023-05-24T02:02:07.533Z,73151.28
2023-05-24T02:02:40.131Z,73153.28
2023-05-24T02:03:15.047Z,73157.28
2023-05-24T02:03:50.651Z,73157.28
2023-05-24T02:04:23.257Z,73149.31
2023-05-24T02:04:56.517Z,73157.28
2023-05-24T02:05:28.888Z,73155.28
2023-05-24T02:06:05.301Z,73149.31
2023-05-24T02:06:38.423Z,73149.31
2023-05-24T02:07:13.771Z,73149.31
2023-05-24T02:07:48.820Z,73153.28
2023-05-24T02:08:21.450Z,73157.28
2023-05-24T02:08:53.910Z,73157.28
2023-05-24T02:09:29.747Z,73151.28
2023-05-24T02:10:02.168Z,73149.31
2023-05-24T02:10:34.550Z,73153.28
2023-05-24T02:11:09.626Z,73157.28
2023-05-24T02:11:42.130Z,73157.28
2023-05-24T02:12:14.504Z,73155.28
2023-05-24T02:12:49.489Z,73153.28
2023-05-24T02:13:24.485Z,73157.28
2023-05-24T02:13:56.994Z,73153.28
2023-05-24T02:14:29.568Z,73157.28
2023-05-24T02:15:05.086Z,73159.28
2023-05-24T02:15:37.490Z,73157.28
2023-05-24T02:16:10.962Z,73161.28
2023-05-24T02:16:47.171Z,73155.28
2023-05-24T02:17:19.678Z,73153.28
2023-05-24T02:17:54.949Z,73159.28
2023-05-24T02:18:35.019Z,73159.28
2023-05-24T02:19:07.489Z,73159.28
2023-05-24T02:19:39.889Z,73159.28
2023-05-24T02:20:17.604Z,73165.28
2023-05-24T02:20:50.078Z,73165.28
2023-05-24T02:21:23.726Z,73159.28
2023-05-24T02:21:58.680Z,73157.28
2023-05-24T02:22:31.125Z,73161.28
2023-05-24T02:23:04.192Z,73165.28
2023-05-24T02:23:39.276Z,73163.28
2023-05-24T02:24:12.698Z,73161.28
2023-05-24T02:24:45.207Z,73169.25
2023-05-24T02:25:20.273Z,73165.28
2023-05-24T02:25:52.621Z,73163.28
2023-05-24T02:26:24.982Z,73165.28
2023-05-24T02:26:59.987Z,73167.25
2023-05-24T02:27:32.543Z,73165.28
2023-05-24T02:28:04.945Z,73165.28
2023-05-24T02:28:43.106Z,73169.25
2023-05-24T02:29:15.740Z,73165.28
2023-05-24T02:29:48.522Z,73165.28
2023-05-24T02:30:23.680Z,73161.28
2023-05-24T02:30:56.099Z,73169.25
2023-05-24T02:31:29.955Z,73173.25
2023-05-24T02:32:05.192Z,73169.25
2023-05-24T02:32:38.008Z,73169.25
2023-05-24T02:33:10.550Z,73169.25
2023-05-24T02:33:45.529Z,73169.25
2023-05-24T02:34:17.939Z,73169.25
2023-05-24T02:34:50.336Z,73173.25
2023-05-24T02:35:26.104Z,73171.25
2023-05-24T02:35:58.506Z,73169.25
2023-05-24T02:36:32.842Z,73165.28
2023-05-24T02:37:08.252Z,73165.28
2023-05-24T02:37:40.995Z,73173.25
2023-05-24T02:38:13.385Z,73169.25
2023-05-24T02:38:45.752Z,73173.25
2023-05-24T02:39:20.759Z,73169.25
2023-05-24T02:39:53.410Z,73167.25
2023-05-24T02:40:26.407Z,73167.25
2023-05-24T02:41:01.371Z,73173.25
2023-05-24T02:41:33.721Z,73173.25
2023-05-24T02:42:07.011Z,73165.28
2023-05-24T02:42:42.076Z,73169.25
2023-05-24T02:43:14.505Z,73169.25
2023-05-24T02:43:49.639Z,73165.28
2023-05-24T02:44:24.605Z,73167.25
2023-05-24T02:44:56.980Z,73173.25
2023-05-24T02:45:29.324Z,73169.25
2023-05-24T02:46:04.359Z,73171.25
2023-05-24T02:46:36.823Z,73169.25
2023-05-24T02:47:09.237Z,73169.25
2023-05-24T02:47:44.230Z,73171.25
2023-05-24T02:48:16.678Z,73167.25
2023-05-24T02:48:49.905Z,73167.25
2023-05-24T02:49:24.886Z,73169.25
2023-05-24T02:49:57.484Z,73169.25
2023-05-24T02:50:29.971Z,73173.25
2023-05-24T02:51:03.494Z,73169.25
2023-05-24T02:51:38.919Z,73169.25
2023-05-24T02:52:11.402Z,73169.25
2023-05-24T02:52:43.830Z,73169.25
2023-05-24T02:53:18.967Z,73167.25
2023-05-24T02:53:51.604Z,73173.25
2023-05-24T02:54:24.000Z,73169.25
2023-05-24T02:54:56.673Z,73167.25
2023-05-24T02:55:32.602Z,73169.25
2023-05-24T02:56:05.949Z,73169.25
2023-05-24T02:56:39.804Z,73169.25
2023-05-24T02:57:14.837Z,73165.28
2023-05-24T02:57:49.274Z,73165.28
2023-05-24T02:58:21.844Z,73159.28
2023-05-24T02:59:01.468Z,73167.25
2023-05-24T02:59:35.383Z,73167.25
2023-05-24T03:00:11.341Z,73169.25
2023-05-24T03:00:48.262Z,73167.25
2023-05-24T03:01:21.423Z,73167.25
2023-05-24T03:01:57.434Z,73167.25
2023-05-24T03:02:34.336Z,73167.25
2023-05-24T03:03:07.151Z,73171.25
2023-05-24T03:03:42.626Z,73169.25
2023-05-24T03:04:15.580Z,73165.28
2023-05-24T03:04:48.399Z,73167.25
2023-05-24T03:05:23.513Z,73165.28
2023-05-24T03:05:56.284Z,73163.28
2023-05-24T03:06:28.648Z,73163.28
2023-05-24T03:07:04.757Z,73167.25
2023-05-24T03:07:37.322Z,73161.28
2023-05-24T03:08:09.691Z,73165.28
2023-05-24T03:08:44.809Z,73161.28
2023-05-24T03:09:19.212Z,73167.25
2023-05-24T03:09:51.660Z,73165.28
2023-05-24T03:10:26.654Z,73165.28
2023-05-24T03:10:59.054Z,73161.28
2023-05-24T03:11:31.416Z,73161.28
2023-05-24T03:12:06.598Z,73161.28
2023-05-24T03:12:40.137Z,73165.28
2023-05-24T03:13:12.661Z,73165.28
2023-05-24T03:13:47.643Z,73165.28
2023-05-24T03:14:25.096Z,73161.28
2023-05-24T03:14:57.540Z,73165.28
2023-05-24T03:15:32.694Z,73167.25
2023-05-24T03:16:05.989Z,73161.28
2023-05-24T03:16:41.164Z,73165.28
2023-05-24T03:17:13.585Z,73159.28
2023-05-24T03:17:46.296Z,73165.28
2023-05-24T03:18:18.769Z,73167.25
2023-05-24T03:18:55.744Z,73163.28
2023-05-24T03:19:28.314Z,73161.28
2023-05-24T03:20:01.580Z,73165.28
2023-05-24T03:20:36.629Z,73165.28
2023-05-24T03:21:11.777Z,73169.25
2023-05-24T03:21:45.806Z,73169.25
2023-05-24T03:22:18.205Z,73173.25
2023-05-24T03:22:53.260Z,73169.25
2023-05-24T03:23:26.175Z,73169.25
2023-05-24T03:23:59.210Z,73171.25
2023-05-24T03:24:35.013Z,73171.25
2023-05-24T03:25:09.093Z,73173.25
2023-05-24T03:25:41.530Z,73171.25
2023-05-24T03:26:16.604Z,73177.25
2023-05-24T03:26:49.324Z,73173.25
2023-05-24T03:27:22.671Z,73179.25
2023-05-24T03:27:58.125Z,73177.25
2023-05-24T03:28:30.618Z,73177.25
2023-05-24T03:29:03.592Z,73177.25
2023-05-24T03:29:46.872Z,73179.25
2023-05-24T03:30:20.621Z,73181.25
2023-05-24T03:30:59.891Z,73177.25
2023-05-24T03:31:35.604Z,73181.25
2023-05-24T03:32:08.211Z,73185.22
2023-05-24T03:32:40.711Z,73181.25
2023-05-24T03:33:15.895Z,73181.25
2023-05-24T03:33:48.886Z,73185.22
2023-05-24T03:34:21.343Z,73185.22
2023-05-24T03:34:57.759Z,73185.22
2023-05-24T03:35:30.884Z,73185.22
2023-05-24T03:36:04.465Z,73187.22
2023-05-24T03:36:39.498Z,73187.22
2023-05-24T03:37:11.886Z,73185.22
2023-05-24T03:37:45.827Z,73185.22
2023-05-24T03:38:21.078Z,73185.22
2023-05-24T03:38:53.694Z,73185.22
2023-05-24T03:39:26.426Z,73193.22
2023-05-24T03:40:16.297Z,73187.22
2023-05-24T03:40:59.373Z,73189.22
2023-05-24T03:41:34.188Z,73193.22
2023-05-24T03:42:09.700Z,73189.22
2023-05-24T03:42:42.627Z,73189.22
2023-05-24T03:43:17.262Z,73187.22
2023-05-24T03:44:03.921Z,73181.25
2023-05-24T03:44:36.899Z,73187.22
2023-05-24T03:45:24.160Z,73187.22
2023-05-24T03:46:03.736Z,73189.22
2023-05-24T03:46:38.820Z,73187.22
2023-05-24T03:47:11.323Z,73185.22
2023-05-24T03:47:43.762Z,73189.22
2023-05-24T03:48:20.956Z,73193.22
2023-05-24T03:48:53.722Z,73193.22
2023-05-24T03:49:26.134Z,73193.22
2023-05-24T03:50:01.492Z,73187.22
2023-05-24T03:50:34.411Z,73193.22
2023-05-24T03:51:07.018Z,73189.22
2023-05-24T03:51:42.938Z,73193.22
2023-05-24T03:52:15.502Z,73193.22
2023-05-24T03:52:48.619Z,73195.22
2023-05-24T03:53:23.324Z,73193.22
2023-05-24T03:53:59.628Z,73199.22
2023-05-24T03:54:32.228Z,73193.22
2023-05-24T03:55:05.226Z,73197.22
2023-05-24T03:55:37.671Z,73201.19
2023-05-24T03:56:12.662Z,73197.22
2023-05-24T03:56:45.039Z,73201.19
2023-05-24T03:57:18.011Z,73201.19
2023-05-24T03:57:53.106Z,73197.22
2023-05-24T03:58:25.773Z,73197.22
2023-05-24T03:59:00.884Z,73199.22
2023-05-24T03:59:36.034Z,73199.22
2023-05-24T04:00:10.292Z,73195.22
2023-05-24T04:00:49.016Z,73201.19
2023-05-24T04:01:33.518Z,73197.22
2023-05-24T04:02:08.441Z,73201.19
2023-05-24T04:02:41.158Z,73197.22
2023-05-24T04:03:16.351Z,73197.22
2023-05-24T04:03:49.019Z,73197.22
2023-05-24T04:04:21.891Z,73199.22
2023-05-24T04:04:57.931Z,73197.22
2023-05-24T04:05:30.337Z,73201.19
2023-05-24T04:06:02.850Z,73199.22
2023-05-24T04:06:38.407Z,73197.22
2023-05-24T04:07:12.189Z,73205.19
2023-05-24T04:07:46.623Z,73201.19
2023-05-24T04:08:21.768Z,73203.19
2023-05-24T04:08:54.195Z,73205.19
2023-05-24T04:09:26.592Z,73203.19
2023-05-24T04:10:01.603Z,73205.19
2023-05-24T04:10:33.963Z,73213.19
2023-05-24T04:11:09.039Z,73209.19
2023-05-24T04:11:43.089Z,73203.19
2023-05-24T04:12:17.382Z,73205.19
2023-05-24T04:12:52.445Z,73203.19
2023-05-24T04:13:24.845Z,73201.19
2023-05-24T04:14:00.625Z,73201.19
2023-05-24T04:14:35.930Z,73201.19
2023-05-24T04:15:10.207Z,73209.19
2023-05-24T04:15:43.713Z,73203.19
2023-05-24T04:16:22.139Z,73201.19
2023-05-24T04:16:55.416Z,73205.19
2023-05-24T04:17:29.793Z,73203.19
2023-05-24T04:18:05.023Z,73201.19
2023-05-24T04:18:40.021Z,73201.19
2023-05-24T04:19:12.598Z,73197.22
2023-05-24T04:19:48.213Z,73201.19
2023-05-24T04:20:21.116Z,73201.19
2023-05-24T04:20:55.190Z,73201.19
2023-05-24T04:21:30.211Z,73201.19
2023-05-24T04:22:02.586Z,73201.19
2023-05-24T04:22:36.214Z,73201.19
2023-05-24T04:23:08.638Z,73201.19
2023-05-24T04:23:43.648Z,73205.19
2023-05-24T04:24:16.652Z,73199.22
2023-05-24T04:24:49.853Z,73203.19
2023-05-24T04:25:25.508Z,73201.19
2023-05-24T04:25:59.635Z,73205.19
2023-05-24T04:26:32.297Z,73201.19
2023-05-24T04:27:08.267Z,73203.19
2023-05-24T04:27:40.845Z,73197.22
2023-05-24T04:28:15.504Z,73205.19
2023-05-24T04:28:50.509Z,73199.22
2023-05-24T04:29:26.155Z,73201.19
2023-05-24T04:29:58.812Z,73201.19
2023-05-24T04:30:33.768Z,73201.19
2023-05-24T04:31:06.983Z,73203.19
2023-05-24T04:31:42.588Z,73201.19
2023-05-24T04:32:18.069Z,73201.19
2023-05-24T04:32:51.581Z,73205.19
2023-05-24T04:33:24.032Z,73207.19
2023-05-24T04:34:00.145Z,73201.19
2023-05-24T04:34:34.057Z,73205.19
2023-05-24T04:35:08.340Z,73205.19
2023-05-24T04:35:44.533Z,73205.19
2023-05-24T04:36:17.928Z,73205.19
2023-05-24T04:36:52.666Z,73207.19
2023-05-24T04:37:27.813Z,73209.19
2023-05-24T04:38:00.193Z,73209.19
2023-05-24T04:38:34.745Z,73205.19
2023-05-24T04:39:09.756Z,73215.19
2023-05-24T04:39:42.423Z,73207.19
2023-05-24T04:40:14.812Z,73215.19
2023-05-24T04:40:49.983Z,73213.19
2023-05-24T04:41:22.688Z,73213.19
2023-05-24T04:41:56.644Z,73213.19
2023-05-24T04:42:32.408Z,73217.16
2023-05-24T04:43:07.859Z,73217.16
2023-05-24T04:43:40.906Z,73213.19
2023-05-24T04:44:13.277Z,73215.19
2023-05-24T04:44:48.253Z,73217.16
2023-05-24T04:45:21.023Z,73213.19
2023-05-24T04:45:54.873Z,73219.16
2023-05-24T04:46:30.523Z,73217.16
2023-05-24T04:47:06.289Z,73215.19
2023-05-24T04:47:41.524Z,73219.16
2023-05-24T04:48:13.925Z,73215.19
2023-05-24T04:48:46.268Z,73209.19
2023-05-24T04:49:21.243Z,73213.19
2023-05-24T04:49:53.817Z,73209.19
2023-05-24T04:50:26.572Z,73209.19
2023-05-24T04:51:01.834Z,73221.16
2023-05-24T04:51:34.542Z,73217.16
2023-05-24T04:52:07.787Z,73217.16
2023-05-24T04:52:42.779Z,73217.16
2023-05-24T04:53:15.127Z,73217.16
2023-05-24T04:53:47.474Z,73215.19
2023-05-24T04:54:23.102Z,73215.19
2023-05-24T04:54:55.812Z,73221.16
2023-05-24T04:55:30.862Z,73219.16
2023-05-24T04:56:03.215Z,73217.16
2023-05-24T04:56:35.756Z,73219.16
2023-05-24T04:57:08.142Z,73221.16
2023-05-24T04:57:43.105Z,73221.16
2023-05-24T04:58:15.540Z,73219.16
2023-05-24T04:58:51.226Z,73217.16
2023-05-24T04:59:23.582Z,73223.16
2023-05-24T04:59:55.974Z,73219.16
2023-05-24T05:00:30.968Z,73221.16
2023-05-24T05:01:03.375Z,73221.16
2023-05-24T05:01:35.904Z,73221.16
2023-05-24T05:02:13.747Z,73221.16
2023-05-24T05:02:46.344Z,73217.16
2023-05-24T05:03:18.923Z,73221.16
2023-05-24T05:03:53.992Z,73217.16
2023-05-24T05:04:26.441Z,73217.16
2023-05-24T05:04:58.783Z,73219.16
2023-05-24T05:05:34.102Z,73217.16
2023-05-24T05:06:06.838Z,73217.16
2023-05-24T05:06:40.696Z,73217.16
2023-05-24T05:07:15.696Z,73217.16
2023-05-24T05:07:48.126Z,73217.16
2023-05-24T05:08:23.396Z,73217.16
2023-05-24T05:08:55.824Z,73221.16
2023-05-24T05:09:28.439Z,73221.16
2023-05-24T05:10:03.400Z,73221.16
2023-05-24T05:10:36.466Z,73215.19
2023-05-24T05:11:08.820Z,73217.16
2023-05-24T05:11:44.103Z,73221.16
2023-05-24T05:12:16.487Z,73217.16
2023-05-24T05:12:49.056Z,73221.16
2023-05-24T05:13:24.073Z,73213.19
2023-05-24T05:13:56.442Z,73215.19
2023-05-24T05:14:29.333Z,73213.19
2023-05-24T05:15:04.293Z,73209.19
2023-05-24T05:15:36.678Z,73215.19
2023-05-24T05:16:11.703Z,73211.19
2023-05-24T05:16:44.913Z,73205.19
2023-05-24T05:17:20.130Z,73209.19
2023-05-24T05:17:55.138Z,73209.19
2023-05-24T05:18:27.563Z,73215.19
2023-05-24T05:18:59.942Z,73215.19
2023-05-24T05:19:35.170Z,73213.19
2023-05-24T05:20:09.684Z,73211.19
2023-05-24T05:20:42.369Z,73217.16
2023-05-24T05:21:17.700Z,73221.16
2023-05-24T05:21:50.117Z,73213.19
2023-05-24T05:22:22.508Z,73217.16
2023-05-24T05:22:57.619Z,73213.19
2023-05-24T05:23:29.997Z,73213.19
2023-05-24T05:24:03.102Z,73223.16
2023-05-24T05:24:38.069Z,73223.16
2023-05-24T05:25:10.668Z,73221.16
2023-05-24T05:25:45.678Z,73225.16
2023-05-24T05:26:18.243Z,73225.16
2023-05-24T05:26:53.262Z,73223.16
2023-05-24T05:27:25.694Z,73223.16
2023-05-24T05:27:58.067Z,73227.16
2023-05-24T05:28:33.027Z,73221.16
2023-05-24T05:29:05.392Z,73229.16
2023-05-24T05:29:40.353Z,73223.16
2023-05-24T05:30:13.526Z,73225.16
2023-05-24T05:30:46.268Z,73225.16
2023-05-24T05:31:21.376Z,73229.16
2023-05-24T05:31:53.780Z,73227.16
2023-05-24T05:32:28.945Z,73225.16
2023-05-24T05:33:06.349Z,73225.16
2023-05-24T05:33:38.890Z,73229.16
2023-05-24T05:34:11.408Z,73225.16
2023-05-24T05:34:46.416Z,73221.16
2023-05-24T05:35:18.799Z,73221.16
2023-05-24T05:35:53.590Z,73225.16
2023-05-24T05:36:29.829Z,73221.16
2023-05-24T05:37:02.198Z,73219.16
2023-05-24T05:37:37.155Z,73217.16
2023-05-24T05:38:09.512Z,73215.19
2023-05-24T05:38:41.959Z,73217.16
2023-05-24T05:39:16.924Z,73211.19
2023-05-24T05:39:49.396Z,73213.19
2023-05-24T05:40:24.351Z,73209.19
2023-05-24T05:40:56.718Z,73209.19
2023-05-24T05:41:29.111Z,73209.19
2023-05-24T05:42:04.158Z,73209.19
2023-05-24T05:42:36.541Z,73207.19
2023-05-24T05:43:09.499Z,73205.19
2023-05-24T05:43:44.446Z,73209.19
2023-05-24T05:44:17.069Z,73205.19
2023-05-24T05:44:49.578Z,73205.19
2023-05-24T05:45:24.536Z,73207.19
2023-05-24T05:45:56.959Z,73213.19
2023-05-24T05:46:29.329Z,73205.19
2023-05-24T05:47:06.053Z,73203.19
2023-05-24T05:47:41.488Z,73201.19
2023-05-24T05:48:13.933Z,73199.22
2023-05-24T05:48:49.393Z,73197.22
2023-05-24T05:49:21.763Z,73201.19
2023-05-24T05:49:56.725Z,73193.22
2023-05-24T05:50:29.120Z,73195.22
2023-05-24T05:51:01.478Z,73197.22
2023-05-24T05:51:37.163Z,73197.22
2023-05-24T05:52:09.557Z,73193.22
2023-05-24T05:52:44.632Z,73195.22
2023-05-24T05:53:17.168Z,73189.22
2023-05-24T05:53:49.508Z,73195.22
2023-05-24T05:54:24.445Z,73191.22
2023-05-24T05:54:56.886Z,73193.22
2023-05-24T05:55:31.834Z,73193.22
2023-05-24T05:56:04.338Z,73193.22
2023-05-24T05:56:45.067Z,73193.22
2023-05-24T05:57:19.857Z,73193.22
2023-05-24T05:57:54.832Z,73189.22
2023-05-24T05:58:27.199Z,73189.22
2023-05-24T05:58:59.546Z,73193.22
2023-05-24T05:59:36.402Z,73195.22
2023-05-24T06:00:10.264Z,73191.22
2023-05-24T06:00:48.875Z,73195.22
2023-05-24T06:01:21.236Z,73193.22
2023-05-24T06:01:58.943Z,73197.22
2023-05-24T06:02:31.389Z,73193.22
2023-05-24T06:03:06.575Z,73191.22
2023-05-24T06:03:41.759Z,73195.22
2023-05-24T06:04:14.438Z,73195.22
2023-05-24T06:04:47.733Z,73189.22
2023-05-24T06:05:23.008Z,73197.22
2023-05-24T06:05:55.360Z,73193.22
2023-05-24T06:06:30.356Z,73193.22
2023-05-24T06:07:02.719Z,73197.22
2023-05-24T06:07:38.919Z,73189.22
2023-05-24T06:08:11.269Z,73193.22
2023-05-24T06:08:46.314Z,73189.22
2023-05-24T06:09:18.707Z,73193.22
2023-05-24T06:09:51.086Z,73187.22
2023-05-24T06:10:26.068Z,73195.22
2023-05-24T06:10:58.451Z,73195.22
2023-05-24T06:11:30.831Z,73195.22
2023-05-24T06:12:05.940Z,73193.22
2023-05-24T06:12:39.003Z,73193.22
2023-05-24T06:13:11.406Z,73191.22
2023-05-24T06:13:46.442Z,73193.22
2023-05-24T06:14:20.149Z,73195.22
2023-05-24T06:14:52.588Z,73195.22
2023-05-24T06:15:27.575Z,73197.22
2023-05-24T06:16:01.484Z,73189.22
2023-05-24T06:16:34.288Z,73189.22
2023-05-24T06:17:09.790Z,73193.22
2023-05-24T06:17:44.083Z,73197.22
2023-05-24T06:18:21.689Z,73193.22
2023-05-24T06:19:05.496Z,73195.22
2023-05-24T06:19:41.530Z,73193.22
2023-05-24T06:20:16.202Z,73193.22
2023-05-24T06:20:51.317Z,73193.22
2023-05-24T06:21:23.665Z,73187.22
2023-05-24T06:21:56.153Z,73189.22
2023-05-24T06:22:31.157Z,73189.22
2023-05-24T06:23:03.742Z,73191.22
2023-05-24T06:23:38.729Z,73189.22
2023-05-24T06:24:11.992Z,73191.22
2023-05-24T06:24:47.140Z,73189.22
2023-05-24T06:25:21.320Z,73181.25
2023-05-24T06:25:56.328Z,73185.22
2023-05-24T06:26:28.718Z,73189.22
2023-05-24T06:27:01.616Z,73187.22
2023-05-24T06:27:37.863Z,73191.22
2023-05-24T06:28:10.438Z,73185.22
2023-05-24T06:28:45.392Z,73189.22
2023-05-24T06:29:20.427Z,73191.22
2023-05-24T06:29:52.779Z,73181.25
2023-05-24T06:30:27.842Z,73189.22
2023-05-24T06:31:00.531Z,73189.22
2023-05-24T06:31:35.971Z,73189.22
2023-05-24T06:32:08.455Z,73183.22
2023-05-24T06:32:43.511Z,73181.25
2023-05-24T06:33:18.528Z,73189.22
2023-05-24T06:34:02.572Z,73185.22
2023-05-24T06:34:39.098Z,73181.25
2023-05-24T06:35:11.705Z,73185.22
2023-05-24T06:35:44.302Z,73185.22
2023-05-24T06:36:19.290Z,73187.22
2023-05-24T06:36:53.158Z,73185.22
2023-05-24T06:37:31.615Z,73185.22
2023-05-24T06:38:03.987Z,73187.22
2023-05-24T06:38:36.714Z,73187.22
2023-05-24T06:39:11.755Z,73193.22
2023-05-24T06:39:44.130Z,73193.22
2023-05-24T06:40:19.324Z,73193.22
2023-05-24T06:40:51.764Z,73195.22
2023-05-24T06:41:24.126Z,73197.22
2023-05-24T06:41:59.132Z,73201.19
2023-05-24T06:42:31.594Z,73197.22
2023-05-24T06:43:04.230Z,73201.19
2023-05-24T06:43:40.608Z,73201.19
2023-05-24T06:44:13.286Z,73205.19
2023-05-24T06:44:45.764Z,73203.19
2023-05-24T06:45:21.222Z,73201.19
2023-05-24T06:45:53.607Z,73203.19